Baarn, Netherlands
Current Conditions -  °F | °C
As of 7:25 AM on Saturday 25 Oct 2014 (Local Time) from EHAM Reporting Station
Light Fog Light Fog  
Wind Chill: 52°   Ceiling: Unl
Heat Index: 52°   Visibility: 6mi
Dew Point: 52°   Wind: 3mph
Humidity: 100%   Direction: 210°SSW
Pressure: 29.97"   Gusts: NA
Location:  52.21°N, 5.29°E
Report Text: EHAM 250525Z 21003KT 9999 MIFG FEW012 11/11 Q1015 TEMPO 1200
Loading
Personal Weather Stations






























Interactive Weather Map
Tropical Storm Tracking
New forecast layout! Learn more

10-Day Weather Forecast

Advertisements
Track Severe Weather on mobile